Time;durP1;ratioP1;P1;durP2;ratioP2;P2;SDS_P1;SDS_P2;PMS_P1;PMS_P2;Temp;Humidity;BMP_temperature;BMP_pressure;BME280_temperature;BME280_humidity;BME280_pressure;Samples;Min_cycle;Max_cycle;Signal;HPM_P1;HPM_P2
2021/04/05 00:00:20;;;;;;;20.13;13.83;;;3.60;1.00;;;;;;5068304;28;20439;-69
2021/04/05 00:02:46;;;;;;;22.30;13.85;;;3.60;1.00;;;;;;5069213;28;20169;-71
2021/04/05 00:05:18;;;;;;;22.43;14.73;;;3.50;1.00;;;;;;5065664;28;20528;-70
2021/04/05 00:07:45;;;;;;;25.23;13.40;;;3.50;1.00;;;;;;5063039;28;20434;-69
2021/04/05 00:10:14;;;;;;;20.20;13.23;;;3.50;1.00;;;;;;5068354;28;20201;-70
2021/04/05 00:12:40;;;;;;;17.48;12.70;;;3.40;1.00;;;;;;5064334;28;20231;-70
2021/04/05 00:15:08;;;;;;;19.27;13.03;;;3.40;1.00;;;;;;5071897;28;20236;-70
2021/04/05 00:17:36;;;;;;;19.20;13.07;;;3.40;1.00;;;;;;5068790;28;20185;-70
2021/04/05 00:20:09;;;;;;;19.48;13.43;;;3.30;1.00;;;;;;5066371;28;20192;-69
2021/04/05 00:22:37;;;;;;;18.83;13.32;;;3.30;1.00;;;;;;5059940;28;20204;-70
2021/04/05 00:25:05;;;;;;;18.48;13.57;;;3.30;1.00;;;;;;5049427;28;20192;-70
2021/04/05 00:27:31;;;;;;;20.27;11.50;;;3.30;1.00;;;;;;5067142;28;20593;-70
2021/04/05 00:29:56;;;;;;;18.77;12.40;;;3.30;1.00;;;;;;5068627;28;20189;-70
2021/04/05 00:32:22;;;;;;;14.20;11.57;;;3.40;1.00;;;;;;5067331;28;20197;-70
2021/04/05 00:34:47;;;;;;;20.50;12.93;;;3.40;1.00;;;;;;5067874;28;20205;-70
2021/04/05 00:37:13;;;;;;;22.73;12.40;;;3.40;1.00;;;;;;5075661;28;20218;-69
2021/04/05 00:39:39;;;;;;;18.67;12.37;;;3.40;1.00;;;;;;5074585;28;20184;-70
2021/04/05 00:42:05;;;;;;;19.52;12.48;;;3.40;1.00;;;;;;5075763;28;20264;-71
2021/04/05 00:44:31;;;;;;;18.75;11.95;;;3.40;1.00;;;;;;5074778;28;20223;-70
2021/04/05 00:46:57;;;;;;;16.55;12.07;;;3.40;1.00;;;;;;5073995;28;20242;-70
2021/04/05 00:49:23;;;;;;;15.03;11.30;;;3.40;1.00;;;;;;5074554;28;20180;-70
2021/04/05 00:51:48;;;;;;;16.43;12.17;;;3.40;1.00;;;;;;5073745;28;20450;-69
2021/04/05 00:54:14;;;;;;;17.20;12.10;;;3.30;1.00;;;;;;5075699;28;20227;-70
2021/04/05 00:56:40;;;;;;;15.80;11.20;;;3.30;1.00;;;;;;5063247;28;20296;-70
2021/04/05 00:59:06;;;;;;;15.83;12.17;;;3.30;1.00;;;;;;5075226;28;20483;-71
2021/04/05 01:01:32;;;;;;;18.17;11.30;;;3.20;1.00;;;;;;5064469;28;20526;-69
2021/04/05 01:03:58;;;;;;;17.58;11.48;;;3.10;1.00;;;;;;5075202;28;20188;-69
2021/04/05 01:06:29;;;;;;;17.30;10.73;;;3.10;1.00;;;;;;5074909;28;20539;-70
2021/04/05 01:08:55;;;;;;;16.58;11.65;;;3.10;1.00;;;;;;5073680;28;20227;-69
2021/04/05 01:11:24;;;;;;;16.58;11.73;;;3.10;1.00;;;;;;5075550;28;20240;-70
2021/04/05 01:13:52;;;;;;;14.23;10.45;;;3.00;1.00;;;;;;5073189;28;20705;-70
2021/04/05 01:16:18;;;;;;;13.73;10.18;;;3.00;1.00;;;;;;5075169;28;20212;-69
2021/04/05 01:18:44;;;;;;;15.70;10.80;;;2.90;1.00;;;;;;5074043;28;20267;-70
2021/04/05 01:21:10;;;;;;;14.73;10.63;;;3.00;1.00;;;;;;5080656;28;20438;-70
2021/04/05 01:23:37;;;;;;;15.73;10.30;;;3.00;1.00;;;;;;5074382;28;20188;-70
2021/04/05 01:26:03;;;;;;;17.02;10.57;;;3.00;1.00;;;;;;5068959;28;20193;-69
2021/04/05 01:28:29;;;;;;;18.83;10.05;;;3.00;1.00;;;;;;5068802;28;20196;-70
2021/04/05 01:30:57;;;;;;;17.40;11.33;;;3.00;1.00;;;;;;5081110;28;20195;-70
2021/04/05 01:33:38;;;;;;;12.00;9.88;;;3.00;1.00;;;;;;5076265;28;20260;-70
2021/04/05 01:36:10;;;;;;;23.75;9.93;;;3.00;1.00;;;;;;5075323;28;20208;-70
2021/04/05 01:38:42;;;;;;;12.52;9.82;;;3.00;1.00;;;;;;5077885;28;20230;-69
2021/04/05 01:41:27;;;;;;;14.30;9.77;;;3.00;1.00;;;;;;5072900;28;20552;-69
2021/04/05 01:43:54;;;;;;;17.17;10.70;;;3.00;1.00;;;;;;5063846;28;20192;-69
2021/04/05 01:46:21;;;;;;;15.27;10.27;;;3.00;1.00;;;;;;5072151;28;20193;-69
2021/04/05 01:48:46;;;;;;;14.18;9.60;;;3.00;1.00;;;;;;5070549;28;20276;-70
2021/04/05 01:51:19;;;;;;;14.33;9.80;;;3.00;1.00;;;;;;5071495;28;20268;-70
2021/04/05 01:53:46;;;;;;;15.80;10.45;;;3.00;1.00;;;;;;5069468;28;20227;-69
2021/04/05 01:56:13;;;;;;;16.52;10.32;;;3.10;1.00;;;;;;5070820;28;20205;-70
2021/04/05 01:58:40;;;;;;;14.68;9.40;;;3.10;1.00;;;;;;5070829;28;20227;-69
2021/04/05 02:01:11;;;;;;;14.45;9.73;;;3.10;1.00;;;;;;5069614;28;20183;-70
2021/04/05 02:03:38;;;;;;;14.13;9.70;;;3.10;1.00;;;;;;5070351;28;20205;-69
2021/04/05 02:06:29;;;;;;;16.02;9.70;;;3.10;1.00;;;;;;5071282;28;20636;-69
2021/04/05 02:08:55;;;;;;;15.05;9.25;;;3.10;1.00;;;;;;5068465;28;20625;-70
2021/04/05 02:11:29;;;;;;;18.90;9.73;;;3.20;1.00;;;;;;5071403;28;20233;-70
2021/04/05 02:13:56;;;;;;;13.45;9.27;;;3.20;1.00;;;;;;5060908;28;20841;-70
2021/04/05 02:16:23;;;;;;;11.88;8.48;;;3.20;1.00;;;;;;5070758;28;20247;-71
2021/04/05 02:18:52;;;;;;;13.07;10.00;;;3.20;1.00;;;;;;5066736;28;20177;-70
2021/04/05 02:21:20;;;;;;;14.20;9.77;;;3.20;1.00;;;;;;5053187;28;20188;-71
2021/04/05 02:23:46;;;;;;;14.60;9.98;;;3.20;1.00;;;;;;5070426;28;20196;-70
2021/04/05 02:26:18;;;;;;;16.10;9.93;;;3.20;1.00;;;;;;5065538;28;20270;-70
2021/04/05 02:28:49;;;;;;;15.00;9.57;;;3.20;1.00;;;;;;5065477;28;20246;-70
2021/04/05 02:31:20;;;;;;;14.68;10.40;;;3.30;1.00;;;;;;5057157;28;20185;-70
2021/04/05 02:33:51;;;;;;;16.45;10.27;;;3.30;1.00;;;;;;5070310;28;20263;-70
2021/04/05 02:36:19;;;;;;;15.27;10.15;;;3.30;1.00;;;;;;5069355;28;20216;-70
2021/04/05 02:38:47;;;;;;;12.82;9.65;;;3.40;1.00;;;;;;5068422;28;20248;-71
2021/04/05 02:41:15;;;;;;;18.70;10.02;;;3.30;1.00;;;;;;5070670;28;20188;-70
2021/04/05 02:43:41;;;;;;;16.80;9.25;;;3.30;1.00;;;;;;5069316;28;20185;-70
2021/04/05 02:46:13;;;;;;;16.30;9.60;;;3.40;1.00;;;;;;5067840;28;20550;-70
2021/04/05 02:48:43;;;;;;;13.80;8.75;;;3.30;1.00;;;;;;5069492;28;20632;-70
2021/04/05 02:51:09;;;;;;;11.65;9.40;;;3.30;1.00;;;;;;5068464;28;20238;-70
2021/04/05 02:53:37;;;;;;;16.02;10.07;;;3.30;1.00;;;;;;5069744;28;20189;-70
2021/04/05 02:56:04;;;;;;;14.52;10.10;;;3.30;1.00;;;;;;5066508;28;20231;-70
2021/04/05 02:58:38;;;;;;;15.48;8.90;;;3.20;1.00;;;;;;5069262;28;20184;-70
2021/04/05 03:01:04;;;;;;;15.60;9.98;;;3.20;1.00;;;;;;5069394;28;20184;-71
2021/04/05 03:03:30;;;;;;;15.90;10.10;;;3.20;1.00;;;;;;5067967;28;20185;-70
2021/04/05 03:05:56;;;;;;;10.63;9.20;;;3.20;1.00;;;;;;5064428;28;20185;-69
2021/04/05 03:08:24;;;;;;;12.68;9.70;;;3.20;1.00;;;;;;5063369;28;20442;-70
2021/04/05 03:10:51;;;;;;;14.15;9.80;;;3.30;1.00;;;;;;5056635;28;20235;-70
2021/04/05 03:13:17;;;;;;;15.75;9.63;;;3.30;1.00;;;;;;5068025;28;20208;-70
2021/04/05 03:15:43;;;;;;;14.27;9.77;;;3.40;1.00;;;;;;5069661;28;20201;-70
2021/04/05 03:18:10;;;;;;;14.30;9.60;;;3.50;1.00;;;;;;5069111;28;20188;-70
2021/04/05 03:20:37;;;;;;;14.40;9.63;;;3.50;1.00;;;;;;5069074;28;20255;-70
2021/04/05 03:23:03;;;;;;;12.05;9.48;;;3.40;1.00;;;;;;5051562;28;20209;-70
2021/04/05 03:25:30;;;;;;;12.00;9.13;;;3.40;1.00;;;;;;5068830;28;20185;-69
2021/04/05 03:27:56;;;;;;;13.27;8.88;;;3.40;1.00;;;;;;5068935;28;20248;-69
2021/04/05 03:30:29;;;;;;;16.15;9.98;;;3.40;1.00;;;;;;5067308;28;20643;-69
2021/04/05 03:33:01;;;;;;;16.08;9.20;;;3.50;1.00;;;;;;5066771;28;20341;-69
2021/04/05 03:35:33;;;;;;;15.48;9.38;;;3.50;1.00;;;;;;5067615;28;20265;-70
2021/04/05 03:38:01;;;;;;;17.58;9.70;;;3.60;1.00;;;;;;5068217;28;20654;-69
2021/04/05 03:40:28;;;;;;;14.85;9.20;;;3.60;1.00;;;;;;5066696;28;20201;-70
2021/04/05 03:43:08;;;;;;;11.82;8.48;;;3.60;1.00;;;;;;5067221;28;20192;-70
2021/04/05 03:45:52;;;;;;;13.85;9.30;;;3.70;1.00;;;;;;5069680;28;20196;-70
2021/04/05 03:48:46;;;;;;;14.60;10.02;;;3.70;1.00;;;;;;5067884;28;20185;-69
2021/04/05 03:51:28;;;;;;;12.27;8.82;;;3.70;1.00;;;;;;5069311;28;20243;-70
2021/04/05 03:54:12;;;;;;;15.23;9.50;;;3.70;1.00;;;;;;5066714;28;20196;-70
2021/04/05 03:56:45;;;;;;;13.02;8.82;;;3.70;1.00;;;;;;5067930;28;20189;-70
2021/04/05 03:59:17;;;;;;;13.45;9.48;;;3.70;1.00;;;;;;5077048;28;20886;-70
2021/04/05 04:01:47;;;;;;;12.27;9.50;;;3.70;1.00;;;;;;5067296;28;20251;-69
2021/04/05 04:04:27;;;;;;;14.95;9.23;;;3.70;1.00;;;;;;5068773;28;20189;-69
2021/04/05 04:07:33;;;;;;;14.13;9.43;;;3.70;1.00;;;;;;5063934;28;20202;-70
2021/04/05 04:09:51;;;;;;;11.00;8.75;;;3.70;1.00;;;;;;5065281;28;20682;-70
2021/04/05 04:12:17;;;;;;;13.45;9.60;;;3.70;1.00;;;;;;5067702;28;20250;-70
2021/04/05 04:14:44;;;;;;;14.25;9.65;;;3.80;1.00;;;;;;5068472;28;20189;-70
2021/04/05 04:17:10;;;;;;;13.95;9.45;;;3.70;1.00;;;;;;5069048;28;20568;-70
2021/04/05 04:19:37;;;;;;;11.10;8.95;;;3.70;1.00;;;;;;5066630;28;20193;-70
2021/04/05 04:22:05;;;;;;;11.30;9.30;;;3.70;1.00;;;;;;5067591;28;20647;-71
2021/04/05 04:24:32;;;;;;;21.17;10.75;;;3.70;1.00;;;;;;5049527;28;20188;-69
2021/04/05 04:26:57;;;;;;;14.80;9.55;;;3.80;1.00;;;;;;5067405;28;20312;-70
2021/04/05 04:29:23;;;;;;;14.43;8.77;;;3.70;1.00;;;;;;5051430;28;20275;-70
2021/04/05 04:31:49;;;;;;;18.93;9.90;;;3.70;1.00;;;;;;5067778;28;20181;-70
2021/04/05 04:34:21;;;;;;;12.03;8.00;;;3.80;1.00;;;;;;5068213;28;20199;-70
2021/04/05 04:36:48;;;;;;;14.40;9.90;;;3.80;1.00;;;;;;5067776;28;20498;-70
2021/04/05 04:39:15;;;;;;;14.45;9.70;;;3.90;1.00;;;;;;5067660;28;20232;-71
2021/04/05 04:41:42;;;;;;;15.82;9.85;;;3.90;1.00;;;;;;5067617;28;20187;-70
2021/04/05 04:44:09;;;;;;;13.77;9.65;;;3.90;1.00;;;;;;5065005;28;20292;-70
2021/04/05 04:46:35;;;;;;;13.75;10.25;;;4.00;1.00;;;;;;5068479;28;20187;-70
2021/04/05 04:49:08;;;;;;;11.70;8.70;;;4.00;1.00;;;;;;5067490;28;20934;-70
2021/04/05 04:51:34;;;;;;;17.83;10.13;;;4.00;1.00;;;;;;5068503;28;20654;-69
2021/04/05 04:54:01;;;;;;;19.65;10.68;;;4.00;1.00;;;;;;5067043;28;20185;-70
2021/04/05 04:56:29;;;;;;;19.48;10.27;;;4.10;1.00;;;;;;5054383;28;20215;-69
2021/04/05 04:59:03;;;;;;;17.02;10.00;;;4.20;1.00;;;;;;5067508;28;20235;-71
2021/04/05 05:01:30;;;;;;;14.48;10.15;;;4.10;1.00;;;;;;5077251;28;20176;-70
2021/04/05 05:03:58;;;;;;;16.83;9.80;;;4.10;1.00;;;;;;5073081;28;20276;-70
2021/04/05 05:06:26;;;;;;;14.43;9.60;;;4.10;1.00;;;;;;5067235;28;20189;-69
2021/04/05 05:08:53;;;;;;;12.93;9.60;;;4.20;1.00;;;;;;5068579;28;20201;-72
2021/04/05 05:11:19;;;;;;;15.38;9.98;;;4.20;1.00;;;;;;5067731;28;20228;-70
2021/04/05 05:13:44;;;;;;;15.40;10.00;;;4.20;1.00;;;;;;5075274;28;20549;-69
2021/04/05 05:16:10;;;;;;;14.10;9.60;;;4.20;1.00;;;;;;5064521;28;20505;-70
2021/04/05 05:18:36;;;;;;;15.30;10.07;;;4.30;1.00;;;;;;5050194;28;20662;-70
2021/04/05 05:21:06;;;;;;;15.68;9.80;;;4.40;1.00;;;;;;5059610;28;20920;-71
2021/04/05 05:23:35;;;;;;;14.00;10.43;;;4.40;1.00;;;;;;5071462;28;20177;-69
2021/04/05 05:26:03;;;;;;;17.17;10.45;;;4.50;1.00;;;;;;5074110;28;20181;-69
2021/04/05 05:28:34;;;;;;;14.82;9.93;;;4.50;1.00;;;;;;5074739;28;20255;-69
2021/04/05 05:31:00;;;;;;;16.30;10.55;;;4.60;1.00;;;;;;5073642;28;20864;-70
2021/04/05 05:33:26;;;;;;;15.13;10.52;;;4.70;1.00;;;;;;5070247;28;20178;-70
2021/04/05 05:35:52;;;;;;;15.10;11.20;;;4.80;1.00;;;;;;5070945;28;20902;-71
2021/04/05 05:38:22;;;;;;;18.98;12.15;;;4.90;99.90;;;;;;5071707;28;20215;-70
2021/04/05 05:40:49;;;;;;;15.60;10.32;;;4.90;99.90;;;;;;5071339;28;20170;-69
2021/04/05 05:43:31;;;;;;;13.73;11.35;;;5.00;99.90;;;;;;5071196;28;20188;-69
2021/04/05 05:45:56;;;;;;;16.83;11.50;;;5.00;99.90;;;;;;5070813;28;20185;-70
2021/04/05 05:48:26;;;;;;;13.47;11.03;;;5.10;99.90;;;;;;5071526;28;20185;-72
2021/04/05 05:51:19;;;;;;;15.35;10.65;;;5.20;99.90;;;;;;5070038;28;20888;-69
2021/04/05 05:54:06;;;;;;;14.45;10.25;;;5.20;41.80;;;;;;5071823;28;20196;-69
2021/04/05 05:56:56;;;;;;;15.15;10.88;;;5.20;99.90;;;;;;5055094;28;20212;-69
2021/04/05 05:59:54;;;;;;;14.40;11.05;;;5.20;1.00;;;;;;5072545;28;20186;-70
2021/04/05 06:02:42;;;;;;;14.05;10.75;;;5.20;97.10;;;;;;5057929;28;20177;-70
2021/04/05 06:05:31;;;;;;;13.88;11.50;;;5.30;1.00;;;;;;5074642;28;20188;-70
2021/04/05 06:08:14;;;;;;;16.75;11.98;;;5.30;1.00;;;;;;5071108;28;20173;-70
2021/04/05 06:10:57;;;;;;;14.20;10.93;;;5.40;99.90;;;;;;5070414;28;20228;-70
2021/04/05 06:13:54;;;;;;;20.13;11.75;;;5.40;99.90;;;;;;5075023;28;20180;-70
2021/04/05 06:16:25;;;;;;;15.80;10.68;;;5.50;99.90;;;;;;5043362;28;20277;-70
2021/04/05 06:19:10;;;;;;;13.40;11.00;;;5.60;99.90;;;;;;5070102;28;20177;-70
2021/04/05 06:21:57;;;;;;;16.77;10.25;;;5.70;1.00;;;;;;5070412;28;20666;-70
2021/04/05 06:24:44;;;;;;;14.02;10.80;;;5.90;99.90;;;;;;5067025;28;20182;-70
2021/04/05 06:27:14;;;;;;;13.45;10.13;;;6.00;99.90;;;;;;5069716;28;20354;-70
2021/04/05 06:30:04;;;;;;;15.85;10.73;;;6.20;1.00;;;;;;5069525;28;20187;-70
2021/04/05 06:32:51;;;;;;;15.00;11.07;;;6.30;99.90;;;;;;5058313;28;20706;-70
2021/04/05 06:35:43;;;;;;;13.15;9.68;;;6.50;99.90;;;;;;5056116;28;20292;-70
2021/04/05 06:38:21;;;;;;;15.13;10.13;;;6.70;1.00;;;;;;5066480;28;20617;-71
2021/04/05 06:40:48;;;;;;;13.10;9.97;;;7.00;1.00;;;;;;5050836;28;20274;-71
2021/04/05 06:43:39;;;;;;;16.33;9.53;;;7.20;99.90;;;;;;5070028;28;20422;-71
2021/04/05 06:46:23;;;;;;;12.63;10.00;;;7.50;99.90;;;;;;5069393;28;20444;-71
2021/04/05 06:48:51;;;;;;;11.87;8.93;;;7.60;1.00;;;;;;5069625;28;20563;-71
2021/04/05 06:51:20;;;;;;;14.40;9.70;;;7.80;99.90;;;;;;5070530;28;20430;-71
2021/04/05 06:53:53;;;;;;;10.67;8.83;;;8.00;1.00;;;;;;5044797;28;20441;-71
2021/04/05 06:56:22;;;;;;;14.30;9.53;;;8.10;99.90;;;;;;5068067;28;20515;-71
2021/04/05 06:58:58;;;;;;;12.23;10.17;;;8.20;99.90;;;;;;5069362;28;21058;-70
2021/04/05 07:01:49;;;;;;;11.60;8.70;;;8.50;99.90;;;;;;5068250;28;20492;-69
2021/04/05 07:04:53;;;;;;;11.10;8.83;;;8.70;99.90;;;;;;5042204;28;20449;-69
2021/04/05 07:07:28;;;;;;;12.60;9.47;;;9.00;1.00;;;;;;5064071;28;20996;-67
2021/04/05 07:10:19;;;;;;;14.07;8.60;;;9.10;99.90;;;;;;5060053;28;20434;-68
2021/04/05 07:13:08;;;;;;;12.97;9.03;;;9.40;1.00;;;;;;5044044;28;20461;-67
2021/04/05 07:15:46;;;;;;;15.30;9.53;;;9.60;1.00;;;;;;5060702;28;20466;-67
2021/04/05 07:18:23;;;;;;;9.80;8.80;;;9.80;1.00;;;;;;5054146;28;20423;-69
2021/04/05 07:21:16;;;;;;;9.37;7.67;;;10.00;1.00;;;;;;5059011;28;20430;-69
2021/04/05 07:23:47;;;;;;;12.63;8.10;;;10.20;1.00;;;;;;5058685;28;20444;-69
2021/04/05 07:26:35;;;;;;;12.37;8.67;;;10.50;1.00;;;;;;5059136;28;20489;-67
2021/04/05 07:29:25;;;;;;;10.30;8.17;;;10.80;99.90;;;;;;5057740;28;20477;-68
2021/04/05 07:32:09;;;;;;;9.70;8.70;;;11.00;99.90;;;;;;5060022;28;20481;-72
2021/04/05 07:34:57;;;;;;;9.87;8.50;;;11.10;99.90;;;;;;5059376;28;20441;-72
2021/04/05 07:37:53;;;;;;;15.03;8.63;;;11.20;99.90;;;;;;5056308;28;20558;-74
2021/04/05 07:40:42;;;;;;;10.13;8.37;;;11.40;99.90;;;;;;5058349;28;20419;-72
2021/04/05 07:43:43;;;;;;;18.00;8.03;;;11.40;99.90;;;;;;5059553;28;20443;-72
2021/04/05 07:46:17;;;;;;;9.77;7.80;;;11.50;99.90;;;;;;5059662;28;20450;-71
2021/04/05 07:49:04;;;;;;;12.37;8.70;;;11.40;99.90;;;;;;5059290;28;20434;-71
2021/04/05 07:51:51;;;;;;;11.20;9.07;;;11.40;99.90;;;;;;5058664;28;20522;-73
2021/04/05 07:54:19;;;;;;;12.33;8.63;;;11.40;99.90;;;;;;5058754;28;20438;-73
2021/04/05 07:56:53;;;;;;;12.10;8.00;;;11.50;99.90;;;;;;5058810;28;20477;-72
2021/04/05 07:59:37;;;;;;;13.03;8.37;;;11.60;99.90;;;;;;5059523;28;20433;-72
2021/04/05 08:02:11;;;;;;;12.50;8.50;;;11.70;99.90;;;;;;5059181;28;20895;-72
2021/04/05 08:04:54;;;;;;;10.20;8.40;;;11.70;99.90;;;;;;5057943;28;20429;-73
2021/04/05 08:07:48;;;;;;;11.30;8.70;;;11.70;99.90;;;;;;5058648;28;20530;-71
2021/04/05 08:10:29;;;;;;;13.27;7.93;;;11.50;99.90;;;;;;5058339;28;21567;-71
2021/04/05 08:13:27;;;;;;;11.23;8.20;;;11.50;99.90;;;;;;5057040;28;20481;-72
2021/04/05 08:16:22;;;;;;;11.00;8.87;;;11.50;99.90;;;;;;5006437;28;20573;-72
2021/04/05 08:18:55;;;;;;;13.80;9.00;;;11.50;99.90;;;;;;5060174;28;20423;-72
2021/04/05 08:21:32;;;;;;;10.67;8.43;;;11.60;99.90;;;;;;5060158;28;20540;-72
2021/04/05 08:24:13;;;;;;;10.03;8.03;;;11.70;99.90;;;;;;5058894;28;20471;-72
2021/04/05 08:26:50;;;;;;;8.90;8.00;;;11.70;99.90;;;;;;5058600;28;20431;-71
2021/04/05 08:29:38;;;;;;;13.07;7.53;;;11.70;99.90;;;;;;5057176;28;20524;-71
2021/04/05 08:32:04;;;;;;;16.27;8.70;;;11.70;99.90;;;;;;5058708;28;20524;-71
2021/04/05 08:34:48;;;;;;;13.43;8.60;;;11.60;99.90;;;;;;5059604;28;20450;-73
2021/04/05 08:37:46;;;;;;;12.40;8.20;;;11.50;99.90;;;;;;5058654;28;20462;-73
2021/04/05 08:40:23;;;;;;;11.53;9.20;;;11.60;99.90;;;;;;4959520;28;21038;-71
2021/04/05 08:43:10;;;;;;;8.77;7.27;;;11.60;99.90;;;;;;5067365;28;20498;-72
2021/04/05 08:45:54;;;;;;;10.90;8.10;;;11.50;99.90;;;;;;5047075;28;20462;-70
2021/04/05 08:48:21;;;;;;;11.50;8.93;;;11.50;99.90;;;;;;5066070;28;21051;-71
2021/04/05 08:50:58;;;;;;;11.03;8.77;;;11.60;99.90;;;;;;5058207;28;20535;-72
2021/04/05 08:53:25;;;;;;;10.97;8.90;;;11.60;99.90;;;;;;5052228;28;21270;-71
2021/04/05 08:55:53;;;;;;;11.13;8.83;;;11.70;99.90;;;;;;5057155;28;20514;-72
2021/04/05 08:58:33;;;;;;;10.87;8.70;;;11.70;99.90;;;;;;5060832;28;20910;-77
2021/04/05 09:01:04;;;;;;;10.03;8.60;;;11.80;99.90;;;;;;5053231;28;20499;-74
2021/04/05 09:03:32;;;;;;;11.70;9.33;;;11.80;99.90;;;;;;5058514;28;20435;-76
2021/04/05 09:05:59;;;;;;;10.80;8.80;;;11.90;99.90;;;;;;5060362;28;20944;-76
2021/04/05 09:08:27;;;;;;;9.00;8.10;;;12.00;99.90;;;;;;5056382;28;20424;-77
2021/04/05 09:10:56;;;;;;;12.43;9.67;;;12.10;99.90;;;;;;5062224;28;20471;-78
2021/04/05 09:13:27;;;;;;;12.40;9.60;;;12.30;99.90;;;;;;5056431;28;20443;-74
2021/04/05 09:16:17;;;;;;;14.27;9.93;;;12.30;99.90;;;;;;5061484;28;20950;-74
2021/04/05 09:19:15;;;;;;;12.33;9.43;;;12.40;99.90;;;;;;5054738;28;20915;-78
2021/04/05 09:22:11;;;;;;;12.40;8.70;;;12.40;99.90;;;;;;5054962;28;20432;-78
2021/04/05 09:24:58;;;;;;;12.60;10.10;;;12.30;99.90;;;;;;5050877;28;20459;-82
2021/04/05 09:28:07;;;;;;;14.23;9.73;;;12.20;99.90;;;;;;5068463;28;20520;-80
2021/04/05 09:30:54;;;;;;;10.07;9.03;;;12.20;99.90;;;;;;5068735;28;20435;-71
2021/04/05 09:33:51;;;;;;;14.07;10.27;;;12.30;99.90;;;;;;5057808;28;20418;-72
2021/04/05 09:36:53;;;;;;;14.03;10.07;;;12.40;99.90;;;;;;5073511;28;20458;-72
2021/04/05 09:39:45;;;;;;;12.60;8.53;;;12.40;99.90;;;;;;5067604;28;20467;-67
2021/04/05 09:42:38;;;;;;;10.87;9.10;;;12.40;99.90;;;;;;5071136;28;20502;-70
2021/04/05 09:45:27;;;;;;;17.83;9.87;;;12.30;99.90;;;;;;5066948;28;20447;-70
2021/04/05 09:48:22;;;;;;;11.53;8.73;;;12.20;99.90;;;;;;5069254;28;20419;-74
2021/04/05 09:51:23;;;;;;;13.20;9.30;;;12.20;99.90;;;;;;5068025;28;20510;-80
2021/04/05 09:54:17;;;;;;;11.73;9.50;;;12.30;99.90;;;;;;5070507;28;20793;-63
2021/04/05 09:56:48;;;;;;;13.47;8.80;;;12.50;99.90;;;;;;5068750;28;21045;-61
2021/04/05 09:59:18;;;;;;;11.83;9.90;;;12.30;99.90;;;;;;5069936;28;20432;-63
2021/04/05 10:01:50;;;;;;;13.70;9.33;;;12.20;99.90;;;;;;5070954;28;20485;-63
2021/04/05 10:04:21;;;;;;;13.20;9.90;;;11.90;99.90;;;;;;5069339;28;20532;-64
2021/04/05 10:06:47;;;;;;;14.97;10.70;;;11.80;99.90;;;;;;5070038;28;20914;-64
2021/04/05 10:09:13;;;;;;;12.30;10.50;;;11.70;99.90;;;;;;5070146;28;20435;-63
2021/04/05 10:11:41;;;;;;;14.57;11.30;;;11.60;99.90;;;;;;5069039;28;20473;-64
2021/04/05 10:14:10;;;;;;;12.23;9.40;;;11.60;99.90;;;;;;5069866;28;20918;-63
2021/04/05 10:16:38;;;;;;;12.30;9.43;;;11.70;99.90;;;;;;5070799;28;20583;-64
2021/04/05 10:19:13;;;;;;;13.43;10.03;;;11.60;99.90;;;;;;5048407;28;20443;-68
2021/04/05 10:21:50;;;;;;;16.60;11.10;;;11.60;99.90;;;;;;5052436;28;20490;-68
2021/04/05 10:24:20;;;;;;;13.17;9.47;;;11.60;99.90;;;;;;5075129;28;20469;-68
2021/04/05 10:26:50;;;;;;;13.67;8.77;;;11.50;99.90;;;;;;5069893;28;20445;-74
2021/04/05 10:29:17;;;;;;;13.43;9.43;;;11.40;99.90;;;;;;5069543;28;20524;-75
2021/04/05 10:31:45;;;;;;;13.90;10.20;;;11.20;99.90;;;;;;5070207;28;20470;-75
2021/04/05 10:34:11;;;;;;;12.30;9.97;;;11.30;99.90;;;;;;5068472;28;20442;-74
2021/04/05 10:36:45;;;;;;;12.43;9.83;;;11.20;99.90;;;;;;5071375;28;20467;-74
2021/04/05 10:39:12;;;;;;;13.77;9.70;;;11.20;99.90;;;;;;5065957;28;20559;-75
2021/04/05 10:42:05;;;;;;;10.07;7.93;;;11.10;99.90;;;;;;5069653;28;20452;-74
2021/04/05 10:44:37;;;;;;;14.97;10.07;;;11.00;99.90;;;;;;5060366;28;20461;-75
2021/04/05 10:47:07;;;;;;;12.43;9.50;;;10.90;1.00;;;;;;5069122;28;21009;-76
2021/04/05 10:49:33;;;;;;;10.63;9.23;;;10.70;1.00;;;;;;5068003;28;20675;-75
2021/04/05 10:52:12;;;;;;;14.80;11.20;;;10.30;1.00;;;;;;5071557;28;20431;-75
2021/04/05 10:54:43;;;;;;;10.50;8.00;;;10.10;1.00;;;;;;5069382;28;20435;-74
2021/04/05 10:57:15;;;;;;;15.93;9.50;;;9.90;99.90;;;;;;5067840;28;20479;-78
2021/04/05 10:59:48;;;;;;;13.27;10.60;;;9.60;99.90;;;;;;5069729;28;20445;-78
2021/04/05 11:02:41;;;;;;;16.67;11.30;;;9.30;1.00;;;;;;5070130;28;20900;-78
2021/04/05 11:05:18;;;;;;;13.10;9.77;;;9.10;1.00;;;;;;5063385;28;20787;-75
2021/04/05 11:07:47;;;;;;;14.27;9.50;;;9.00;1.00;;;;;;5068585;28;20517;-77
2021/04/05 11:10:21;;;;;;;14.47;9.27;;;8.90;99.90;;;;;;5069700;28;20433;-76
2021/04/05 11:12:53;;;;;;;14.63;10.00;;;8.70;1.00;;;;;;5067934;28;20461;-76
2021/04/05 11:15:21;;;;;;;15.67;10.10;;;8.60;1.00;;;;;;5068926;28;20495;-77
2021/04/05 11:17:51;;;;;;;11.67;9.00;;;8.50;1.00;;;;;;5068552;28;20431;-78
2021/04/05 11:20:19;;;;;;;11.88;8.52;;;8.40;1.00;;;;;;5068601;28;20427;-79
2021/04/05 11:22:46;;;;;;;16.00;10.80;;;8.40;1.00;;;;;;5068701;28;20179;-79
2021/04/05 11:25:21;;;;;;;14.57;10.10;;;8.30;1.00;;;;;;5061866;28;20434;-76
2021/04/05 11:27:59;;;;;;;15.97;11.70;;;8.20;1.00;;;;;;5068532;28;20452;-75
2021/04/05 11:30:27;;;;;;;15.10;10.60;;;8.20;1.00;;;;;;5069882;28;20547;-73
2021/04/05 11:32:53;;;;;;;17.90;10.60;;;8.20;1.00;;;;;;5068091;28;20191;-72
2021/04/05 11:35:21;;;;;;;17.83;12.37;;;8.20;1.00;;;;;;5072325;28;20448;-69
2021/04/05 11:37:51;;;;;;;19.17;12.35;;;8.00;1.00;;;;;;5070935;28;20421;-74
2021/04/05 11:40:20;;;;;;;18.55;12.13;;;7.90;1.00;;;;;;5063520;28;20197;-73
2021/04/05 11:42:48;;;;;;;14.35;11.70;;;7.80;7.50;;;;;;5066283;28;20842;-73
2021/04/05 11:45:20;;;;;;;15.85;11.75;;;7.70;14.50;;;;;;5066941;28;20241;-70
2021/04/05 11:47:50;;;;;;;14.25;9.90;;;7.60;15.80;;;;;;5064315;28;20212;-70
2021/04/05 11:50:18;;;;;;;17.60;11.65;;;7.50;8.30;;;;;;5066901;28;20267;-71
2021/04/05 11:53:07;;;;;;;15.02;10.90;;;7.40;37.20;;;;;;5062266;28;20232;-71
2021/04/05 11:55:37;;;;;;;17.95;11.95;;;7.30;36.10;;;;;;5058432;28;20266;-71
2021/04/05 11:58:12;;;;;;;15.00;10.77;;;7.30;61.20;;;;;;5068247;28;20259;-72
2021/04/05 12:00:47;;;;;;;15.13;11.00;;;7.40;76.90;;;;;;5047201;28;20243;-72
2021/04/05 12:03:49;;;;;;;16.25;10.57;;;7.40;71.90;;;;;;5068472;28;20226;-72
2021/04/05 12:06:22;;;;;;;15.70;9.73;;;7.40;55.60;;;;;;5055326;28;20204;-69
2021/04/05 12:08:54;;;;;;;14.68;9.73;;;7.30;27.30;;;;;;5068149;28;20440;-71
2021/04/05 12:11:25;;;;;;;11.95;9.88;;;7.20;48.40;;;;;;5050576;28;20326;-71
2021/04/05 12:13:59;;;;;;;14.68;11.55;;;7.10;51.50;;;;;;5066923;28;20199;-72
2021/04/05 12:16:28;;;;;;;16.90;11.32;;;7.10;85.10;;;;;;5068049;28;20289;-71
2021/04/05 12:18:55;;;;;;;12.75;8.35;;;7.20;71.60;;;;;;5066292;28;20191;-70
2021/04/05 12:21:29;;;;;;;13.85;10.63;;;7.10;42.70;;;;;;5067078;28;20232;-69
2021/04/05 12:24:00;;;;;;;12.98;9.68;;;7.10;56.80;;;;;;5066970;28;20182;-71
2021/04/05 12:26:27;;;;;;;6.10;4.22;;;7.00;88.50;;;;;;5065132;28;20193;-68
2021/04/05 12:29:04;;;;;;;3.13;2.70;;;6.50;60.40;;;;;;5066647;28;20187;-68
2021/04/05 12:31:30;;;;;;;2.75;1.65;;;5.90;51.10;;;;;;5070877;28;20228;-70
2021/04/05 12:34:07;;;;;;;2.65;1.50;;;5.50;43.40;;;;;;5067109;28;20651;-70
2021/04/05 12:36:34;;;;;;;1.63;1.10;;;5.10;49.40;;;;;;5068832;28;20227;-71
2021/04/05 12:39:02;;;;;;;1.20;1.10;;;4.80;59.00;;;;;;5061353;28;20227;-69
2021/04/05 12:41:48;;;;;;;1.58;1.30;;;4.60;89.90;;;;;;5064999;28;20184;-70
2021/04/05 12:44:24;;;;;;;3.30;2.97;;;4.40;97.10;;;;;;5062009;28;20956;-69
2021/04/05 12:46:52;;;;;;;1.00;1.00;;;4.30;99.90;;;;;;5068263;28;20176;-69
2021/04/05 12:49:24;;;;;;;1.20;1.10;;;4.30;99.90;;;;;;5066862;28;20185;-69
2021/04/05 12:52:06;;;;;;;1.25;1.15;;;4.20;99.90;;;;;;5068175;28;20173;-70
2021/04/05 12:54:34;;;;;;;1.50;1.30;;;4.20;99.90;;;;;;5065176;28;20233;-69
2021/04/05 12:57:03;;;;;;;1.58;1.20;;;4.00;99.90;;;;;;5062697;28;20201;-69
2021/04/05 12:59:30;;;;;;;1.52;1.38;;;4.00;99.90;;;;;;5067723;28;20181;-69
2021/04/05 13:02:06;;;;;;;1.23;1.13;;;4.10;99.90;;;;;;5068195;28;20622;-69
2021/04/05 13:04:34;;;;;;;1.50;1.33;;;4.10;99.90;;;;;;5064001;28;20188;-69
2021/04/05 13:07:09;;;;;;;2.25;1.50;;;4.10;99.90;;;;;;5067050;28;20185;-69
2021/04/05 13:09:48;;;;;;;1.45;1.30;;;4.20;99.90;;;;;;5060594;28;20291;-69
2021/04/05 13:12:40;;;;;;;1.50;1.40;;;4.30;99.90;;;;;;5048497;28;20236;-69
2021/04/05 13:15:16;;;;;;;1.70;1.60;;;4.20;99.90;;;;;;5067595;28;20208;-68
2021/04/05 13:17:47;;;;;;;1.48;1.38;;;4.30;99.90;;;;;;5066971;28;20188;-69
2021/04/05 13:20:17;;;;;;;18.33;16.73;;;4.30;99.90;;;;;;5049379;28;20181;-69
2021/04/05 13:22:51;;;;;;;1.85;1.63;;;4.20;99.90;;;;;;5067655;28;20201;-69